sensor_id;sensor_type;location;lat;lon;timestamp;pressure;altitude;pressure_sealevel;temperature;humidity
24752;BME280;27246;52.376;4.628;2023-03-26T00:01:53;100523.97;;;8.46;95.85
24752;BME280;27246;52.376;4.628;2023-03-26T00:06:55;100524.13;;;8.45;95.93
24752;BME280;27246;52.376;4.628;2023-03-26T00:11:56;100522.69;;;8.26;96.14
24752;BME280;27246;52.376;4.628;2023-03-26T00:16:58;100522.19;;;8.22;96.75
24752;BME280;27246;52.376;4.628;2023-03-26T00:22:00;100525.03;;;8.37;97.49
24752;BME280;27246;52.376;4.628;2023-03-26T00:27:04;100529.53;;;8.30;96.64
24752;BME280;27246;52.376;4.628;2023-03-26T00:32:06;100519.78;;;8.27;96.67
24752;BME280;27246;52.376;4.628;2023-03-26T00:37:08;100509.78;;;8.34;96.85
24752;BME280;27246;52.376;4.628;2023-03-26T00:42:14;100506.88;;;8.36;96.40
24752;BME280;27246;52.376;4.628;2023-03-26T00:47:16;100503.75;;;8.39;96.38
24752;BME280;27246;52.376;4.628;2023-03-26T00:52:18;100489.56;;;8.35;96.10
24752;BME280;27246;52.376;4.628;2023-03-26T00:57:21;100476.31;;;8.39;96.56
24752;BME280;27246;52.376;4.628;2023-03-26T01:02:35;100478.88;;;8.40;96.70
24752;BME280;27246;52.376;4.628;2023-03-26T01:07:38;100482.47;;;8.41;96.28
24752;BME280;27246;52.376;4.628;2023-03-26T01:12:40;100477.75;;;8.27;96.29
24752;BME280;27246;52.376;4.628;2023-03-26T01:17:42;100468.13;;;8.31;96.93
24752;BME280;27246;52.376;4.628;2023-03-26T01:22:49;100467.44;;;8.29;96.31
24752;BME280;27246;52.376;4.628;2023-03-26T01:27:54;100467.44;;;8.29;97.40
24752;BME280;27246;52.376;4.628;2023-03-26T01:39:01;100443.84;;;8.19;96.55
24752;BME280;27246;52.376;4.628;2023-03-26T01:44:30;100433.88;;;8.18;96.29
24752;BME280;27246;52.376;4.628;2023-03-26T01:49:33;100432.19;;;8.17;96.93
24752;BME280;27246;52.376;4.628;2023-03-26T01:54:35;100423.13;;;8.09;95.91
24752;BME280;27246;52.376;4.628;2023-03-26T02:09:58;100412.75;;;7.96;96.83
24752;BME280;27246;52.376;4.628;2023-03-26T02:15:01;100405.25;;;7.81;97.05
24752;BME280;27246;52.376;4.628;2023-03-26T02:20:03;100394.47;;;7.80;97.41
24752;BME280;27246;52.376;4.628;2023-03-26T02:25:09;100391.22;;;7.76;96.77
24752;BME280;27246;52.376;4.628;2023-03-26T02:30:15;100385.78;;;7.68;96.94
24752;BME280;27246;52.376;4.628;2023-03-26T02:35:20;100374.63;;;7.70;97.13
24752;BME280;27246;52.376;4.628;2023-03-26T02:40:28;100367.09;;;7.72;96.58
24752;BME280;27246;52.376;4.628;2023-03-26T02:45:31;100346.00;;;7.72;96.18
24752;BME280;27246;52.376;4.628;2023-03-26T02:50:38;100340.88;;;7.69;96.14
24752;BME280;27246;52.376;4.628;2023-03-26T02:56:03;100337.03;;;7.47;96.60
24752;BME280;27246;52.376;4.628;2023-03-26T03:01:12;100340.84;;;7.21;97.44
24752;BME280;27246;52.376;4.628;2023-03-26T03:06:25;100349.03;;;7.46;97.47
24752;BME280;27246;52.376;4.628;2023-03-26T03:11:32;100360.00;;;7.30;97.23
24752;BME280;27246;52.376;4.628;2023-03-26T03:16:34;100344.09;;;7.25;99.17
24752;BME280;27246;52.376;4.628;2023-03-26T03:21:41;100339.63;;;7.40;100.00
24752;BME280;27246;52.376;4.628;2023-03-26T03:26:43;100319.72;;;7.55;99.50
24752;BME280;27246;52.376;4.628;2023-03-26T03:32:05;100324.88;;;7.50;98.48
24752;BME280;27246;52.376;4.628;2023-03-26T03:37:13;100306.53;;;7.50;99.58
24752;BME280;27246;52.376;4.628;2023-03-26T03:42:21;100304.06;;;7.64;99.72
24752;BME280;27246;52.376;4.628;2023-03-26T03:47:26;100294.16;;;7.63;99.01
24752;BME280;27246;52.376;4.628;2023-03-26T03:52:28;100299.59;;;7.71;98.59
24752;BME280;27246;52.376;4.628;2023-03-26T03:57:30;100289.78;;;7.76;97.89
24752;BME280;27246;52.376;4.628;2023-03-26T04:02:40;100301.97;;;7.74;97.66
24752;BME280;27246;52.376;4.628;2023-03-26T04:07:44;100294.06;;;7.79;97.59
24752;BME280;27246;52.376;4.628;2023-03-26T04:13:06;100285.50;;;7.74;97.54
24752;BME280;27246;52.376;4.628;2023-03-26T04:18:23;100282.28;;;7.70;98.07
24752;BME280;27246;52.376;4.628;2023-03-26T04:23:27;100283.72;;;7.58;97.43
24752;BME280;27246;52.376;4.628;2023-03-26T04:28:44;100270.44;;;7.47;98.83
24752;BME280;27246;52.376;4.628;2023-03-26T04:33:55;100265.63;;;7.49;99.07
24752;BME280;27246;52.376;4.628;2023-03-26T04:39:02;100256.34;;;7.50;99.33
24752;BME280;27246;52.376;4.628;2023-03-26T04:44:31;100251.53;;;7.52;99.35
24752;BME280;27246;52.376;4.628;2023-03-26T04:49:40;100249.47;;;7.54;100.00
24752;BME280;27246;52.376;4.628;2023-03-26T04:54:43;100239.91;;;7.50;99.72
24752;BME280;27246;52.376;4.628;2023-03-26T04:59:49;100234.81;;;7.47;99.98
24752;BME280;27246;52.376;4.628;2023-03-26T05:04:52;100231.16;;;7.54;100.00
24752;BME280;27246;52.376;4.628;2023-03-26T05:09:55;100223.78;;;7.55;100.00
24752;BME280;27246;52.376;4.628;2023-03-26T05:15:33;100219.47;;;7.60;100.00
24752;BME280;27246;52.376;4.628;2023-03-26T05:20:44;100223.06;;;7.61;100.00
24752;BME280;27246;52.376;4.628;2023-03-26T05:25:47;100209.25;;;7.77;100.00
24752;BME280;27246;52.376;4.628;2023-03-26T05:30:52;100216.69;;;7.69;100.00
24752;BME280;27246;52.376;4.628;2023-03-26T05:36:01;100205.44;;;7.78;100.00
24752;BME280;27246;52.376;4.628;2023-03-26T05:41:06;100205.78;;;7.84;100.00
24752;BME280;27246;52.376;4.628;2023-03-26T05:46:11;100191.28;;;7.75;100.00
24752;BME280;27246;52.376;4.628;2023-03-26T05:51:13;100192.00;;;7.69;100.00
24752;BME280;27246;52.376;4.628;2023-03-26T05:56:23;100185.03;;;7.58;100.00
24752;BME280;27246;52.376;4.628;2023-03-26T06:01:37;100179.50;;;7.66;100.00
24752;BME280;27246;52.376;4.628;2023-03-26T06:06:57;100171.66;;;7.63;100.00
24752;BME280;27246;52.376;4.628;2023-03-26T06:11:59;100160.81;;;7.70;100.00
24752;BME280;27246;52.376;4.628;2023-03-26T06:17:03;100154.09;;;7.72;100.00
24752;BME280;27246;52.376;4.628;2023-03-26T06:22:24;100153.91;;;7.74;100.00
24752;BME280;27246;52.376;4.628;2023-03-26T06:27:48;100141.63;;;7.47;100.00
24752;BME280;27246;52.376;4.628;2023-03-26T06:33:08;100145.06;;;7.40;100.00
24752;BME280;27246;52.376;4.628;2023-03-26T06:38:17;100154.69;;;7.36;100.00
24752;BME280;27246;52.376;4.628;2023-03-26T06:43:19;100150.22;;;7.35;100.00
24752;BME280;27246;52.376;4.628;2023-03-26T06:48:41;100154.00;;;7.43;100.00
24752;BME280;27246;52.376;4.628;2023-03-26T06:53:46;100152.59;;;7.47;100.00
24752;BME280;27246;52.376;4.628;2023-03-26T06:59:01;100160.34;;;7.35;100.00
24752;BME280;27246;52.376;4.628;2023-03-26T07:04:22;100157.09;;;7.31;100.00
24752;BME280;27246;52.376;4.628;2023-03-26T07:09:42;100159.88;;;7.23;100.00
24752;BME280;27246;52.376;4.628;2023-03-26T07:15:03;100153.91;;;7.19;100.00
24752;BME280;27246;52.376;4.628;2023-03-26T07:20:23;100161.44;;;7.17;100.00
24752;BME280;27246;52.376;4.628;2023-03-26T07:25:27;100148.66;;;7.10;100.00
24752;BME280;27246;52.376;4.628;2023-03-26T07:36:25;100151.00;;;7.21;100.00
24752;BME280;27246;52.376;4.628;2023-03-26T07:47:33;100155.69;;;7.35;100.00
24752;BME280;27246;52.376;4.628;2023-03-26T07:52:54;100158.53;;;7.50;98.66
24752;BME280;27246;52.376;4.628;2023-03-26T08:04:46;100152.50;;;7.24;99.71
24752;BME280;27246;52.376;4.628;2023-03-26T08:20:52;100159.84;;;7.31;97.68
24752;BME280;27246;52.376;4.628;2023-03-26T08:26:13;100162.97;;;7.20;96.01
24752;BME280;27246;52.376;4.628;2023-03-26T08:31:25;100160.63;;;7.17;96.57
24752;BME280;27246;52.376;4.628;2023-03-26T08:36:29;100166.88;;;7.26;96.34
24752;BME280;27246;52.376;4.628;2023-03-26T08:57:37;100166.75;;;7.50;92.48
24752;BME280;27246;52.376;4.628;2023-03-26T09:03:13;100177.97;;;7.64;90.64
24752;BME280;27246;52.376;4.628;2023-03-26T09:35:49;100204.47;;;7.40;82.88
24752;BME280;27246;52.376;4.628;2023-03-26T10:12:34;100228.91;;;7.58;78.69
24752;BME280;27246;52.376;4.628;2023-03-26T10:17:48;100242.81;;;7.79;77.95
24752;BME280;27246;52.376;4.628;2023-03-26T10:39:36;100246.13;;;7.75;77.02
24752;BME280;27246;52.376;4.628;2023-03-26T10:44:59;100256.84;;;8.08;73.97
24752;BME280;27246;52.376;4.628;2023-03-26T10:55:39;100273.06;;;8.17;72.14
24752;BME280;27246;52.376;4.628;2023-03-26T11:17:02;100294.16;;;9.08;69.80
24752;BME280;27246;52.376;4.628;2023-03-26T11:22:19;100298.44;;;9.55;67.46
24752;BME280;27246;52.376;4.628;2023-03-26T11:27:52;100303.44;;;9.81;65.99
24752;BME280;27246;52.376;4.628;2023-03-26T11:33:02;100309.59;;;9.68;65.56
24752;BME280;27246;52.376;4.628;2023-03-26T11:38:14;100321.88;;;10.02;62.45
24752;BME280;27246;52.376;4.628;2023-03-26T11:43:22;100318.38;;;9.93;62.22
24752;BME280;27246;52.376;4.628;2023-03-26T11:48:36;100311.25;;;9.48;63.00
24752;BME280;27246;52.376;4.628;2023-03-26T11:53:39;100321.56;;;9.46;62.39
24752;BME280;27246;52.376;4.628;2023-03-26T11:58:58;100329.47;;;9.49;62.44
24752;BME280;27246;52.376;4.628;2023-03-26T12:04:13;100336.38;;;9.30;61.85
24752;BME280;27246;52.376;4.628;2023-03-26T12:09:17;100348.38;;;9.88;62.06
24752;BME280;27246;52.376;4.628;2023-03-26T12:14:24;100343.75;;;10.10;61.97
24752;BME280;27246;52.376;4.628;2023-03-26T12:19:34;100360.72;;;9.77;60.26
24752;BME280;27246;52.376;4.628;2023-03-26T12:24:36;100377.97;;;10.01;60.84
24752;BME280;27246;52.376;4.628;2023-03-26T12:29:38;100368.53;;;10.10;58.55
24752;BME280;27246;52.376;4.628;2023-03-26T12:34:39;100376.88;;;10.17;59.13
24752;BME280;27246;52.376;4.628;2023-03-26T12:39:42;100386.09;;;10.46;58.90
24752;BME280;27246;52.376;4.628;2023-03-26T12:45:04;100394.41;;;10.52;58.12
24752;BME280;27246;52.376;4.628;2023-03-26T12:50:12;100387.19;;;10.15;57.21
24752;BME280;27246;52.376;4.628;2023-03-26T12:56:00;100401.63;;;10.75;58.54
24752;BME280;27246;52.376;4.628;2023-03-26T13:06:20;100405.91;;;10.99;57.12
24752;BME280;27246;52.376;4.628;2023-03-26T13:33:39;100429.09;;;11.61;62.84
24752;BME280;27246;52.376;4.628;2023-03-26T13:39:10;100437.19;;;11.13;55.83
24752;BME280;27246;52.376;4.628;2023-03-26T13:49:36;100450.09;;;10.69;53.50
24752;BME280;27246;52.376;4.628;2023-03-26T13:54:54;100462.16;;;11.26;56.07
24752;BME280;27246;52.376;4.628;2023-03-26T14:00:08;100466.59;;;11.06;51.57
24752;BME280;27246;52.376;4.628;2023-03-26T14:05:26;100480.66;;;11.11;56.41
24752;BME280;27246;52.376;4.628;2023-03-26T14:10:35;100472.34;;;11.04;55.15
24752;BME280;27246;52.376;4.628;2023-03-26T14:15:46;100488.00;;;11.04;53.86
24752;BME280;27246;52.376;4.628;2023-03-26T14:26:45;100498.66;;;11.28;57.02
24752;BME280;27246;52.376;4.628;2023-03-26T14:37:42;100515.41;;;11.55;58.65
24752;BME280;27246;52.376;4.628;2023-03-26T14:53:31;100541.94;;;10.91;49.98
24752;BME280;27246;52.376;4.628;2023-03-26T15:16:31;100579.78;;;10.68;46.88
24752;BME280;27246;52.376;4.628;2023-03-26T15:21:20;100591.28;;;10.56;48.08
24752;BME280;27246;52.376;4.628;2023-03-26T15:26:44;100600.50;;;11.15;56.03
24752;BME280;27246;52.376;4.628;2023-03-26T15:43:14;100646.13;;;9.75;49.17
24752;BME280;27246;52.376;4.628;2023-03-26T15:48:20;100643.47;;;10.20;50.75
24752;BME280;27246;52.376;4.628;2023-03-26T15:53:33;100665.16;;;10.97;54.50
24752;BME280;27246;52.376;4.628;2023-03-26T15:58:59;100668.56;;;9.87;49.23
24752;BME280;27246;52.376;4.628;2023-03-26T16:04:44;100676.84;;;10.40;57.34
24752;BME280;27246;52.376;4.628;2023-03-26T16:15:18;100698.59;;;9.97;48.93
24752;BME280;27246;52.376;4.628;2023-03-26T16:20:23;100724.50;;;9.56;47.15
24752;BME280;27246;52.376;4.628;2023-03-26T16:26:08;100730.31;;;9.22;47.62
24752;BME280;27246;52.376;4.628;2023-03-26T16:36:36;100746.69;;;9.78;48.07
24752;BME280;27246;52.376;4.628;2023-03-26T16:47:18;100767.38;;;9.66;47.32
24752;BME280;27246;52.376;4.628;2023-03-26T16:52:42;100773.28;;;9.86;49.67
24752;BME280;27246;52.376;4.628;2023-03-26T16:57:55;100783.81;;;10.05;48.17
24752;BME280;27246;52.376;4.628;2023-03-26T17:03:22;100787.56;;;10.50;53.62
24752;BME280;27246;52.376;4.628;2023-03-26T17:08:47;100791.88;;;10.07;51.32
24752;BME280;27246;52.376;4.628;2023-03-26T17:24:57;100828.75;;;10.20;50.12
24752;BME280;27246;52.376;4.628;2023-03-26T17:35:44;100850.13;;;10.18;52.85
24752;BME280;27246;52.376;4.628;2023-03-26T17:40:57;100855.88;;;10.32;57.76
24752;BME280;27246;52.376;4.628;2023-03-26T17:46:18;100874.81;;;9.64;48.14
24752;BME280;27246;52.376;4.628;2023-03-26T17:51:33;100887.31;;;9.35;48.63
24752;BME280;27246;52.376;4.628;2023-03-26T17:56:38;100893.22;;;9.64;49.56
24752;BME280;27246;52.376;4.628;2023-03-26T18:01:42;100905.53;;;9.36;48.33
24752;BME280;27246;52.376;4.628;2023-03-26T18:17:42;100948.53;;;9.85;52.46
24752;BME280;27246;52.376;4.628;2023-03-26T18:22:45;100960.66;;;9.43;48.53
24752;BME280;27246;52.376;4.628;2023-03-26T18:27:47;100969.38;;;9.71;50.63
24752;BME280;27246;52.376;4.628;2023-03-26T18:37:58;100996.00;;;9.79;54.52
24752;BME280;27246;52.376;4.628;2023-03-26T18:43:00;101008.44;;;9.58;50.18
24752;BME280;27246;52.376;4.628;2023-03-26T18:48:05;101016.13;;;9.14;47.86
24752;BME280;27246;52.376;4.628;2023-03-26T18:53:19;101032.28;;;8.92;47.71
24752;BME280;27246;52.376;4.628;2023-03-26T18:58:27;101028.47;;;8.77;48.16
24752;BME280;27246;52.376;4.628;2023-03-26T19:03:33;101045.97;;;8.76;48.87
24752;BME280;27246;52.376;4.628;2023-03-26T19:08:37;101059.56;;;8.86;49.22
24752;BME280;27246;52.376;4.628;2023-03-26T19:13:39;101066.94;;;8.85;48.96
24752;BME280;27246;52.376;4.628;2023-03-26T19:18:44;101068.25;;;8.65;49.20
24752;BME280;27246;52.376;4.628;2023-03-26T19:23:46;101070.50;;;8.69;48.76
24752;BME280;27246;52.376;4.628;2023-03-26T19:28:50;101079.47;;;8.37;49.61
24752;BME280;27246;52.376;4.628;2023-03-26T19:34:12;101088.88;;;8.77;49.93
24752;BME280;27246;52.376;4.628;2023-03-26T19:39:15;101099.06;;;8.42;50.25
24752;BME280;27246;52.376;4.628;2023-03-26T19:44:31;101099.09;;;8.50;49.99
24752;BME280;27246;52.376;4.628;2023-03-26T20:00:07;101123.03;;;8.32;50.78
24752;BME280;27246;52.376;4.628;2023-03-26T20:05:25;101131.91;;;8.60;52.36
24752;BME280;27246;52.376;4.628;2023-03-26T20:10:27;101138.25;;;8.60;51.79
24752;BME280;27246;52.376;4.628;2023-03-26T20:15:32;101152.78;;;8.45;51.26
24752;BME280;27246;52.376;4.628;2023-03-26T20:20:34;101159.50;;;8.50;50.88
24752;BME280;27246;52.376;4.628;2023-03-26T20:25:40;101165.16;;;8.91;50.79
24752;BME280;27246;52.376;4.628;2023-03-26T20:30:48;101172.84;;;8.45;50.94
24752;BME280;27246;52.376;4.628;2023-03-26T20:35:54;101187.66;;;8.87;55.27
24752;BME280;27246;52.376;4.628;2023-03-26T20:40:57;101192.31;;;8.94;53.82
24752;BME280;27246;52.376;4.628;2023-03-26T20:46:00;101196.19;;;8.49;54.02
24752;BME280;27246;52.376;4.628;2023-03-26T20:51:02;101192.69;;;8.13;54.82
24752;BME280;27246;52.376;4.628;2023-03-26T20:56:07;101198.47;;;8.01;55.84
24752;BME280;27246;52.376;4.628;2023-03-26T21:01:12;101205.34;;;8.06;55.52
24752;BME280;27246;52.376;4.628;2023-03-26T21:06:14;101209.59;;;8.00;56.93
24752;BME280;27246;52.376;4.628;2023-03-26T21:11:24;101208.97;;;8.06;56.77
24752;BME280;27246;52.376;4.628;2023-03-26T21:16:29;101215.06;;;8.00;56.53
24752;BME280;27246;52.376;4.628;2023-03-26T21:21:46;101229.84;;;7.99;57.20
24752;BME280;27246;52.376;4.628;2023-03-26T21:32:14;101226.69;;;7.94;56.64
24752;BME280;27246;52.376;4.628;2023-03-26T21:37:16;101245.88;;;8.12;54.89
24752;BME280;27246;52.376;4.628;2023-03-26T21:42:19;101251.16;;;8.05;53.92
24752;BME280;27246;52.376;4.628;2023-03-26T21:47:21;101267.91;;;8.02;53.87
24752;BME280;27246;52.376;4.628;2023-03-26T21:52:23;101267.41;;;8.25;53.65
24752;BME280;27246;52.376;4.628;2023-03-26T22:08:01;101302.13;;;7.62;64.02
24752;BME280;27246;52.376;4.628;2023-03-26T22:13:04;101304.41;;;7.49;66.51
24752;BME280;27246;52.376;4.628;2023-03-26T22:18:05;101311.19;;;7.45;67.07
24752;BME280;27246;52.376;4.628;2023-03-26T22:23:08;101316.81;;;7.43;67.31
24752;BME280;27246;52.376;4.628;2023-03-26T22:28:10;101328.66;;;7.34;67.54
24752;BME280;27246;52.376;4.628;2023-03-26T22:33:12;101330.97;;;7.38;69.19
24752;BME280;27246;52.376;4.628;2023-03-26T22:38:14;101337.06;;;7.32;69.11
24752;BME280;27246;52.376;4.628;2023-03-26T22:43:17;101346.75;;;7.27;69.56
24752;BME280;27246;52.376;4.628;2023-03-26T22:48:20;101352.06;;;7.28;68.67
24752;BME280;27246;52.376;4.628;2023-03-26T22:53:22;101360.69;;;7.33;68.10
24752;BME280;27246;52.376;4.628;2023-03-26T22:58:25;101372.78;;;7.40;68.73
24752;BME280;27246;52.376;4.628;2023-03-26T23:03:28;101382.47;;;7.35;65.48
24752;BME280;27246;52.376;4.628;2023-03-26T23:08:36;101389.38;;;7.39;63.60
24752;BME280;27246;52.376;4.628;2023-03-26T23:13:39;101399.06;;;7.43;62.98
24752;BME280;27246;52.376;4.628;2023-03-26T23:18:41;101414.00;;;7.58;61.81
24752;BME280;27246;52.376;4.628;2023-03-26T23:23:44;101422.25;;;7.76;62.54
24752;BME280;27246;52.376;4.628;2023-03-26T23:28:45;101433.44;;;7.65;61.84
24752;BME280;27246;52.376;4.628;2023-03-26T23:33:48;101446.06;;;7.38;62.58
24752;BME280;27246;52.376;4.628;2023-03-26T23:38:51;101452.78;;;7.16;62.91
24752;BME280;27246;52.376;4.628;2023-03-26T23:43:54;101447.19;;;6.98;64.38
24752;BME280;27246;52.376;4.628;2023-03-26T23:48:56;101461.59;;;6.91;64.31
24752;BME280;27246;52.376;4.628;2023-03-26T23:54:03;101457.88;;;6.92;64.83
24752;BME280;27246;52.376;4.628;2023-03-26T23:59:05;101458.00;;;6.71;65.91
